AIRPORT ID: FZQF

DATE: 2024-05-27 ZULU TIME: 22.46 LOCAL TIME: 22.46


METAR FZQF 272246Z AUTO 00000KT 10SM 14/09 A3021

ALTIMETER: A3021 Q1023

DENSITY ALT: 4300 Ft

WIND DIRECT: 340

WIND SPEED: 0 Gust

WIND CONDITIONS:

VISIBILTY: 10SM 9999M

TEMPERATURE: 58 F 14 C

DEW POINT: 48 F 9 C

HUMID: 70%

LCL: 1,000-3,000 feet

RADIO CHECK: 0

ADVISARIES: 0

GREETINGS: 0

CONVERSATIONS: 0